map of IEV home
IEV - Airport
Location
City:  Kiev, Kiev, Ukraine
Name:Zhulyany
ICAO:UKKK
IATA:IEV

Details
Type:Airport (Aerodrome, Airfield)
Use:Public/Civil, International (customs port of entry)
Latitude:5024'06"N (50.401694)
Longitude:3026'59"E (30.449697)
Elevation:586 ft (179 m)
Variation:7.60E (WMM2015 magnetic declination)
0.12 annual change
Runways:1
Longest:5905 × 161 ft (1800 × 49 m), paved

Time
Time Zone:UTC+2 (DST+3)
Local Time:

Weather
METAR:UKKK 121530Z 24002MPS 210V270 CAVOK 06/01 Q1010 R26/810250 NOSIG
TAF:UKKK 121104Z 1212/1312 19005MPS 9999 BKN020
TEMPO 1212/1217 22007G12MPS 3000 -SHRA BR BKN005 SCT010CB
BECMG 1217/1218 26003MPS 4000 BR BKN007
TEMPO 1218/1308 1000 -DZ BR OVC002 TX05/1212Z TN02/1304Z

Related Locations
Nearby:
Farthest:CHT: 11099 mi / 17862 km
Waitangi [Tuuta], CIT, NZ

Find:

   beyond  
but within

Other Information
Maps:
NOTAMs:
Links:
Sources:

  
flag of Ukraine
flag of Kiev
flag of Kiev
  

Sectional Chart

Flight Planning
at skyvector.com

Satellite Image

Google Maps Satellite view

 

Copyright © 2004-2017 Karl L. Swartz. All rights reserved.
The Great Circle Mapper name and logo are trademarks of the Great Circle Mapper.
All other trademarks mentioned herein belong to their respective owners.
Please see credits for attibutions and further copyright information.

  Follow gcmap on Facebook Follow gcmap on Twitter Follow gcmap on Google+ GCmap on LinkedIn

hCard Microformat

Geo Microformat